This is the latest recevied weather packets stored in our database for station/object W0VI. If no packets are shown the sender has not sent any weather packets the latest 10 day(s).
| Time | Temp. | Humidity | Pressure | Rain* | Wind** | Luminosity | Snow |
|---|---|---|---|---|---|---|---|
| 1787601920 | 27.22° C | 61% | 1016.6 hPa | 0 mm | - | 513 W/m² | - |
| 1787601616 | 26.11° C | 62% | 1016.8 hPa | 0 mm | - | 389 W/m² | - |
| 1787601311 | 26.67° C | 61% | 1016.7 hPa | 0 mm | - | 521 W/m² | - |
| 1787601010 | 27.22° C | 60% | 1016.8 hPa | 0 mm | - | 311 W/m² | - |
| 1787600705 | 26.67° C | 63% | 1017.2 hPa | 0 mm | - | 555 W/m² | - |
| 1787600401 | 26.67° C | 61% | 1016.9 hPa | 0 mm | - | 541 W/m² | - |
| 1787600096 | 27.22° C | 62% | 1017 hPa | 0 mm | - | 560 W/m² | - |
| 1787599792 | 26.67° C | 62% | 1017.2 hPa | 0 mm | - | 599 W/m² | - |
| 1787599489 | 26.11° C | 64% | 1017.2 hPa | 0 mm | - | 635 W/m² | - |
| 1787599185 | 26.11° C | 64% | 1017.2 hPa | 0 mm | - | 379 W/m² | - |
| 1787598880 | 25.56° C | 65% | 1017.2 hPa | 0 mm | - | 367 W/m² | - |
| 1787598575 | 26.11° C | 65% | 1017.5 hPa | 0 mm | - | 295 W/m² | - |
| 1787598269 | 25.56° C | 64% | 1017.3 hPa | 0 mm | - | 343 W/m² | - |
| 1787597966 | 25.56° C | 65% | 1017.5 hPa | 0 mm | - | 383 W/m² | - |
| 1787597665 | 25.56° C | 65% | 1017.2 hPa | 0 mm | - | 545 W/m² | - |
| 1787597365 | 26.11° C | 63% | 1017.6 hPa | 0 mm | - | 525 W/m² | - |
| 1787597060 | 25° C | 67% | 1017.5 hPa | 0 mm | - | 356 W/m² | - |
| 1787596756 | 25° C | 66% | 1017.3 hPa | 0 mm | - | 331 W/m² | - |
| 1787596452 | 26.11° C | 64% | 1017.6 hPa | 0 mm | - | 482 W/m² | - |
| 1787596146 | 25.56° C | 65% | 1017.5 hPa | 0 mm | - | 595 W/m² | - |
| 1787595843 | 25° C | 67% | 1017.5 hPa | 0 mm | - | 547 W/m² | - |
| 1787595538 | 25° C | 66% | 1017.5 hPa | 0 mm | - | 242 W/m² | - |
| 1787595234 | 25.56° C | 65% | 1017.5 hPa | 0 mm | - | 331 W/m² | - |
| 1787594934 | 25° C | 65% | 1017.4 hPa | 0 mm | - | 753 W/m² | - |
| 1787594633 | 25° C | 64% | 1017.4 hPa | 0 mm | - | 420 W/m² | - |
* Rain latest hour (hover to see other rain measurements)
** Current wind speed in m/s (hover to see current wind gust speed)